createdAt,value
2023-04-21T00:01:36.399Z,55.90
2023-04-21T00:04:23.397Z,56.04
2023-04-21T00:07:10.570Z,55.99
2023-04-21T00:09:57.535Z,56.15
2023-04-21T00:12:44.651Z,56.32
2023-04-21T00:15:31.533Z,56.25
2023-04-21T00:18:18.491Z,56.58
2023-04-21T00:21:05.334Z,56.45
2023-04-21T00:23:53.061Z,56.56
2023-04-21T00:26:39.942Z,56.76
2023-04-21T00:29:27.763Z,56.82
2023-04-21T00:32:14.601Z,56.41
2023-04-21T00:35:01.769Z,56.53
2023-04-21T00:37:48.602Z,56.96
2023-04-21T00:40:36.004Z,56.88
2023-04-21T00:43:27.941Z,56.99
2023-04-21T00:46:14.958Z,57.22
2023-04-21T00:49:01.795Z,57.23
2023-04-21T00:51:49.372Z,57.33
2023-04-21T00:54:37.516Z,57.13
2023-04-21T00:57:25.128Z,57.26
2023-04-21T01:00:14.026Z,57.27
2023-04-21T01:03:01.451Z,57.47
2023-04-21T01:05:48.500Z,57.36
2023-04-21T01:08:35.753Z,57.46
2023-04-21T01:11:30.240Z,57.79
2023-04-21T01:14:18.745Z,57.59
2023-04-21T01:17:05.685Z,57.74
2023-04-21T01:19:58.769Z,57.64
2023-04-21T01:22:46.732Z,57.91
2023-04-21T01:25:33.758Z,57.60
2023-04-21T01:28:20.742Z,58.03
2023-04-21T01:31:07.720Z,57.93
2023-04-21T01:33:55.225Z,58.02
2023-04-21T01:36:42.406Z,58.12
2023-04-21T01:39:29.480Z,57.86
2023-04-21T01:42:16.929Z,58.35
2023-04-21T01:45:03.945Z,57.86
2023-04-21T01:47:51.868Z,58.51
2023-04-21T01:50:38.894Z,58.22
2023-04-21T01:53:26.030Z,58.01
2023-04-21T01:56:13.146Z,58.37
2023-04-21T01:59:00.184Z,58.40
2023-04-21T02:01:47.186Z,58.61
2023-04-21T02:04:34.372Z,58.56
2023-04-21T02:07:21.736Z,58.85
2023-04-21T02:10:08.732Z,58.84
2023-04-21T02:12:55.739Z,58.85
2023-04-21T02:15:42.945Z,58.36
2023-04-21T02:18:49.746Z,58.88
2023-04-21T02:21:37.110Z,59.23
2023-04-21T02:24:24.356Z,59.31
2023-04-21T02:27:13.389Z,58.94
2023-04-21T02:30:00.337Z,58.96
2023-04-21T02:32:47.674Z,58.70
2023-04-21T02:35:34.666Z,58.81
2023-04-21T02:38:22.033Z,59.70
2023-04-21T02:41:09.077Z,59.02
2023-04-21T02:43:56.108Z,58.66
2023-04-21T02:46:43.197Z,59.40
2023-04-21T02:49:30.619Z,59.11
2023-04-21T02:52:18.655Z,59.18
2023-04-21T02:55:05.737Z,59.36
2023-04-21T02:57:52.807Z,59.81
2023-04-21T03:00:42.747Z,59.79
2023-04-21T03:03:30.395Z,58.92
2023-04-21T03:06:22.393Z,59.39
2023-04-21T03:09:09.563Z,59.72
2023-04-21T03:11:56.470Z,59.43
2023-04-21T03:14:43.379Z,59.96
2023-04-21T03:17:32.919Z,59.17
2023-04-21T03:20:20.550Z,59.55
2023-04-21T03:23:07.551Z,59.44
2023-04-21T03:25:54.669Z,60.22
2023-04-21T03:28:41.733Z,60.06
2023-04-21T03:31:28.751Z,59.86
2023-04-21T03:34:15.932Z,59.35
2023-04-21T03:37:03.225Z,59.43
2023-04-21T03:39:50.238Z,60.33
2023-04-21T03:42:38.339Z,59.88
2023-04-21T03:45:26.845Z,60.52
2023-04-21T03:48:14.781Z,60.53
2023-04-21T03:51:01.657Z,59.98
2023-04-21T03:53:48.710Z,59.79
2023-04-21T03:56:35.533Z,60.24
2023-04-21T03:59:22.655Z,60.95
2023-04-21T04:02:09.591Z,60.21
2023-04-21T04:04:56.704Z,60.52
2023-04-21T04:07:43.665Z,60.28
2023-04-21T04:10:30.924Z,61.23
2023-04-21T04:13:17.718Z,60.62
2023-04-21T04:16:04.754Z,61.65
2023-04-21T04:18:52.053Z,60.49
2023-04-21T04:21:39.084Z,60.84
2023-04-21T04:24:26.543Z,61.61
2023-04-21T04:27:13.983Z,60.77
2023-04-21T04:30:01.021Z,60.67
2023-04-21T04:32:48.106Z,60.36
2023-04-21T04:35:34.956Z,61.07
2023-04-21T04:38:22.191Z,60.71
2023-04-21T04:41:15.568Z,60.82
2023-04-21T04:44:03.469Z,61.40
2023-04-21T04:46:51.250Z,60.80
2023-04-21T04:49:38.325Z,61.75
2023-04-21T04:52:25.267Z,61.11
2023-04-21T04:55:12.518Z,60.68
2023-04-21T04:57:59.583Z,61.56
2023-04-21T05:00:46.599Z,60.96
2023-04-21T05:03:33.523Z,61.38
2023-04-21T05:06:20.764Z,60.90
2023-04-21T05:09:07.598Z,60.73
2023-04-21T05:11:54.574Z,61.17
2023-04-21T05:14:41.390Z,61.13
2023-04-21T05:17:28.528Z,61.11
2023-04-21T05:20:15.559Z,60.87
2023-04-21T05:23:02.684Z,60.73
2023-04-21T05:25:49.514Z,60.72
2023-04-21T05:28:36.620Z,60.69
2023-04-21T05:31:23.506Z,60.52
2023-04-21T05:34:10.530Z,60.47
2023-04-21T05:36:57.329Z,60.60
2023-04-21T05:39:47.005Z,60.45
2023-04-21T05:42:34.291Z,60.29
2023-04-21T05:45:22.449Z,60.17
2023-04-21T05:48:10.771Z,60.11
2023-04-21T05:50:58.809Z,59.71
2023-04-21T05:53:45.811Z,60.24
2023-04-21T05:56:33.295Z,59.76
2023-04-21T05:59:20.228Z,59.82
2023-04-21T06:02:07.578Z,59.23
2023-04-21T06:04:54.826Z,59.76
2023-04-21T06:07:42.040Z,59.37
2023-04-21T06:10:30.215Z,59.63
2023-04-21T06:13:17.412Z,59.72
2023-04-21T06:16:04.446Z,59.47
2023-04-21T06:18:51.601Z,59.43
2023-04-21T06:21:38.780Z,58.99
2023-04-21T06:24:26.184Z,59.39
2023-04-21T06:27:13.054Z,58.95
2023-04-21T06:30:00.545Z,59.37
2023-04-21T06:32:47.478Z,58.47
2023-04-21T06:35:35.027Z,58.58
2023-04-21T06:38:21.809Z,59.04
2023-04-21T06:41:08.953Z,58.35
2023-04-21T06:43:55.932Z,58.97
2023-04-21T06:46:42.955Z,58.42
2023-04-21T06:49:30.238Z,57.94
2023-04-21T06:52:18.283Z,58.37
2023-04-21T06:55:06.820Z,57.92
2023-04-21T06:57:53.930Z,57.98
2023-04-21T07:00:40.839Z,58.42
2023-04-21T07:03:27.982Z,57.99
2023-04-21T07:06:14.782Z,57.97
2023-04-21T07:09:01.912Z,57.56
2023-04-21T07:11:48.756Z,56.99
2023-04-21T07:14:36.048Z,57.91
2023-04-21T07:17:22.925Z,57.21
2023-04-21T07:20:10.141Z,57.33
2023-04-21T07:22:57.186Z,57.36
2023-04-21T07:25:44.274Z,57.23
2023-04-21T07:28:31.131Z,57.33
2023-04-21T07:31:18.171Z,57.73
2023-04-21T07:34:05.058Z,57.00
2023-04-21T07:36:52.019Z,56.95
2023-04-21T07:39:38.940Z,56.44
2023-04-21T07:42:26.029Z,56.50
2023-04-21T07:45:13.218Z,56.90
2023-04-21T07:48:00.365Z,56.17
2023-04-21T07:50:47.322Z,56.72
2023-04-21T07:53:34.249Z,55.97
2023-04-21T07:56:21.109Z,56.58
2023-04-21T07:59:08.111Z,56.30
2023-04-21T08:01:54.997Z,56.50
2023-04-21T08:04:42.167Z,56.27
2023-04-21T08:07:29.211Z,56.16
2023-04-21T08:10:16.206Z,55.40
2023-04-21T08:13:03.307Z,55.83
2023-04-21T08:15:50.307Z,55.14
2023-04-21T08:18:37.223Z,54.61
2023-04-21T08:21:24.426Z,54.25
2023-04-21T08:24:11.538Z,55.18
2023-04-21T08:26:58.603Z,55.04
2023-04-21T08:29:45.492Z,54.14
2023-04-21T08:32:33.073Z,54.09
2023-04-21T08:35:20.064Z,53.77
2023-04-21T08:38:07.157Z,54.59
2023-04-21T08:40:56.446Z,54.55
2023-04-21T08:43:43.503Z,53.97
2023-04-21T08:46:30.490Z,54.09
2023-04-21T08:49:18.965Z,53.08
2023-04-21T08:52:07.209Z,53.44
2023-04-21T08:54:54.965Z,52.97
2023-04-21T08:57:41.915Z,53.03
2023-04-21T09:00:29.398Z,53.18
2023-04-21T09:03:25.594Z,51.92
2023-04-21T09:06:27.964Z,52.12
2023-04-21T09:09:18.688Z,52.25
2023-04-21T09:12:15.067Z,51.83
2023-04-21T09:15:03.304Z,51.87
2023-04-21T09:17:52.231Z,51.70
2023-04-21T09:20:40.907Z,50.95
2023-04-21T09:23:28.214Z,51.69
2023-04-21T09:26:15.183Z,50.52
2023-04-21T09:29:09.540Z,50.06
2023-04-21T09:31:56.445Z,50.32
2023-04-21T09:34:45.357Z,49.73
2023-04-21T09:37:34.105Z,49.72
2023-04-21T09:40:21.216Z,49.50
2023-04-21T09:43:08.089Z,49.08
2023-04-21T09:45:56.542Z,48.80
2023-04-21T09:48:44.823Z,48.52
2023-04-21T09:54:33.026Z,47.69
2023-04-21T09:57:22.206Z,47.47
2023-04-21T10:00:14.439Z,47.14
2023-04-21T10:03:05.005Z,46.11
2023-04-21T10:05:52.114Z,46.10
2023-04-21T10:08:39.970Z,45.51
2023-04-21T10:11:28.555Z,45.60
2023-04-21T10:14:15.504Z,44.81
2023-04-21T10:17:02.842Z,44.82
2023-04-21T10:19:52.607Z,43.82
2023-04-21T10:22:53.810Z,44.35
2023-04-21T10:25:40.821Z,43.21
2023-04-21T10:28:28.415Z,43.72
2023-04-21T10:31:38.301Z,43.79
2023-04-21T10:34:28.319Z,42.33
2023-04-21T10:37:15.222Z,42.23
2023-04-21T10:40:15.775Z,41.96
2023-04-21T10:43:02.892Z,41.41
2023-04-21T10:45:50.636Z,41.14
2023-04-21T10:48:42.843Z,40.40
2023-04-21T10:51:31.135Z,40.41
2023-04-21T10:54:18.989Z,39.83
2023-04-21T10:57:06.413Z,40.04
2023-04-21T10:59:55.437Z,39.74
2023-04-21T11:02:44.718Z,40.13
2023-04-21T11:05:32.472Z,39.16
2023-04-21T11:08:24.276Z,39.12
2023-04-21T11:11:14.537Z,38.77
2023-04-21T11:14:01.447Z,39.05
2023-04-21T11:16:49.265Z,38.31
2023-04-21T11:19:36.218Z,37.88
2023-04-21T11:22:24.480Z,37.27
2023-04-21T11:25:14.670Z,37.11
2023-04-21T11:28:01.678Z,37.21
2023-04-21T11:30:55.470Z,37.66
2023-04-21T11:33:42.525Z,37.19
2023-04-21T11:36:29.431Z,37.31
2023-04-21T11:39:16.478Z,36.76
2023-04-21T11:42:05.496Z,36.41
2023-04-21T11:44:55.336Z,36.13
2023-04-21T11:47:47.161Z,35.86
2023-04-21T11:50:50.592Z,35.99
2023-04-21T11:53:37.603Z,35.57
2023-04-21T11:56:25.593Z,35.00
2023-04-21T11:59:13.124Z,35.14
2023-04-21T12:02:18.293Z,35.30
2023-04-21T12:05:26.140Z,35.06
2023-04-21T12:08:16.834Z,34.69
2023-04-21T12:11:06.978Z,34.42
2023-04-21T12:13:54.192Z,34.48
2023-04-21T12:16:41.118Z,34.39
2023-04-21T12:19:28.564Z,34.48
2023-04-21T12:22:19.190Z,34.17
2023-04-21T12:25:06.654Z,33.88
2023-04-21T12:27:53.593Z,33.32
2023-04-21T12:30:42.519Z,33.29
2023-04-21T12:33:30.878Z,32.95
2023-04-21T12:36:18.078Z,33.06
2023-04-21T12:39:05.003Z,33.31
2023-04-21T12:41:52.042Z,33.45
2023-04-21T12:44:38.926Z,33.77
2023-04-21T12:47:26.505Z,33.52
2023-04-21T12:50:13.717Z,33.47
2023-04-21T12:53:00.811Z,32.59
2023-04-21T12:56:01.084Z,32.53
2023-04-21T12:58:51.557Z,32.95
2023-04-21T13:01:41.500Z,32.70
2023-04-21T13:04:29.048Z,33.17
2023-04-21T13:07:16.014Z,32.77
2023-04-21T13:10:03.224Z,32.83
2023-04-21T13:12:50.112Z,32.65
2023-04-21T13:15:37.253Z,32.87
2023-04-21T13:18:24.321Z,32.66
2023-04-21T13:21:11.465Z,32.70
2023-04-21T13:23:58.402Z,33.15
2023-04-21T13:26:45.926Z,32.43
2023-04-21T13:29:33.270Z,32.56
2023-04-21T13:32:21.895Z,32.44
2023-04-21T13:35:09.388Z,32.05
2023-04-21T13:38:01.839Z,32.53
2023-04-21T13:40:48.996Z,32.31
2023-04-21T13:43:36.384Z,32.53
2023-04-21T13:46:23.335Z,32.64
2023-04-21T13:49:10.542Z,32.98
2023-04-21T13:51:57.507Z,33.12
2023-04-21T13:54:44.686Z,32.98
2023-04-21T13:57:31.710Z,32.69
2023-04-21T14:00:19.338Z,33.07
2023-04-21T14:03:06.442Z,32.90
2023-04-21T14:05:54.003Z,33.30
2023-04-21T14:08:40.867Z,33.42
2023-04-21T14:11:27.863Z,33.42
2023-04-21T14:14:18.926Z,33.27
2023-04-21T14:17:11.801Z,33.61
2023-04-21T14:19:59.464Z,33.52
2023-04-21T14:22:46.481Z,33.97
2023-04-21T14:25:33.420Z,34.06
2023-04-21T14:28:20.425Z,34.24
2023-04-21T14:31:07.252Z,33.77
2023-04-21T14:33:54.594Z,33.95
2023-04-21T14:36:41.853Z,34.55
2023-04-21T14:39:29.052Z,34.39
2023-04-21T14:42:15.917Z,33.90
2023-04-21T14:45:03.038Z,34.55
2023-04-21T14:47:49.997Z,33.87
2023-04-21T14:50:37.134Z,34.64
2023-04-21T14:53:24.028Z,34.66
2023-04-21T14:56:11.257Z,34.36
2023-04-21T14:58:58.213Z,34.24
2023-04-21T15:01:45.199Z,34.29
2023-04-21T15:04:32.356Z,34.28
2023-04-21T15:07:24.764Z,34.52
2023-04-21T15:10:12.187Z,34.61
2023-04-21T15:12:59.239Z,34.42
2023-04-21T15:15:46.083Z,33.82
2023-04-21T15:18:33.230Z,34.41
2023-04-21T15:21:20.185Z,33.99
2023-04-21T15:24:07.352Z,33.96
2023-04-21T15:26:54.215Z,34.52
2023-04-21T15:29:41.244Z,34.52
2023-04-21T15:32:28.245Z,34.00
2023-04-21T15:35:15.259Z,33.74
2023-04-21T15:38:02.136Z,33.61
2023-04-21T15:41:00.211Z,34.06
2023-04-21T15:43:48.919Z,34.36
2023-04-21T15:46:35.982Z,33.99
2023-04-21T15:49:25.281Z,33.71
2023-04-21T15:52:13.253Z,33.65
2023-04-21T15:55:00.173Z,33.69
2023-04-21T15:57:47.362Z,34.01
2023-04-21T16:00:16.500Z,33.76
2023-04-21T16:02:43.630Z,33.72
2023-04-21T16:05:11.193Z,33.75
2023-04-21T16:07:38.360Z,33.88
2023-04-21T16:10:05.863Z,33.46
2023-04-21T16:12:32.947Z,33.46
2023-04-21T16:15:09.145Z,33.42
2023-04-21T16:17:43.348Z,33.33
2023-04-21T16:20:11.882Z,33.29
2023-04-21T16:22:38.930Z,33.35
2023-04-21T16:25:06.230Z,33.08
2023-04-21T16:27:33.452Z,33.29
2023-04-21T16:30:00.531Z,32.63
2023-04-21T16:32:28.075Z,32.62
2023-04-21T16:34:55.875Z,32.81
2023-04-21T16:37:23.661Z,32.67
2023-04-21T16:39:51.128Z,32.90
2023-04-21T16:42:18.198Z,32.76
2023-04-21T16:44:45.597Z,32.75
2023-04-21T16:47:12.778Z,32.78
2023-04-21T16:49:39.765Z,32.93
2023-04-21T16:52:06.800Z,33.00
2023-04-21T16:54:33.746Z,32.85
2023-04-21T16:57:02.371Z,33.09
2023-04-21T16:59:30.762Z,32.94
2023-04-21T17:02:18.037Z,33.08
2023-04-21T17:05:05.484Z,33.04
2023-04-21T17:07:53.454Z,32.80
2023-04-21T17:10:40.399Z,33.42
2023-04-21T17:13:27.356Z,33.17
2023-04-21T17:16:14.428Z,33.60
2023-04-21T17:19:01.585Z,33.61
2023-04-21T17:21:48.419Z,33.94
2023-04-21T17:24:51.726Z,33.68
2023-04-21T17:27:40.069Z,34.62
2023-04-21T17:30:28.274Z,35.21
2023-04-21T17:33:17.376Z,35.07
2023-04-21T17:36:04.825Z,35.37
2023-04-21T17:38:52.020Z,36.05
2023-04-21T17:41:39.162Z,36.51
2023-04-21T17:44:26.000Z,37.34
2023-04-21T17:47:13.064Z,37.55
2023-04-21T17:50:00.345Z,37.91
2023-04-21T17:52:47.277Z,38.25
2023-04-21T17:55:34.218Z,38.76
2023-04-21T17:58:21.895Z,39.14
2023-04-21T18:01:09.332Z,39.43
2023-04-21T18:03:59.270Z,39.45
2023-04-21T18:06:48.380Z,40.00
2023-04-21T18:09:35.320Z,40.25
2023-04-21T18:12:22.200Z,41.12
2023-04-21T18:15:09.234Z,41.71
2023-04-21T18:17:56.185Z,41.46
2023-04-21T18:20:43.110Z,42.04
2023-04-21T18:23:30.093Z,42.46
2023-04-21T18:26:17.117Z,42.14
2023-04-21T18:29:04.164Z,42.38
2023-04-21T18:31:51.354Z,42.84
2023-04-21T18:34:38.709Z,43.06
2023-04-21T18:37:25.833Z,43.79
2023-04-21T18:40:12.940Z,43.97
2023-04-21T18:42:59.930Z,43.84
2023-04-21T18:45:46.767Z,44.32
2023-04-21T18:48:33.872Z,44.84
2023-04-21T18:51:20.877Z,45.21
2023-04-21T18:54:07.888Z,45.42
2023-04-21T18:56:54.858Z,45.81
2023-04-21T18:59:41.868Z,46.41
2023-04-21T19:02:32.540Z,45.72
2023-04-21T19:05:19.653Z,46.29
2023-04-21T19:08:06.630Z,46.12
2023-04-21T19:10:56.788Z,46.07
2023-04-21T19:13:43.665Z,46.85
2023-04-21T19:16:31.612Z,47.50
2023-04-21T19:19:18.692Z,47.35
2023-04-21T19:22:06.065Z,47.51
2023-04-21T19:24:53.265Z,48.00
2023-04-21T19:27:40.426Z,48.01
2023-04-21T19:30:28.226Z,47.97
2023-04-21T19:33:15.618Z,48.98
2023-04-21T19:36:02.680Z,48.59
2023-04-21T19:38:49.838Z,48.59
2023-04-21T19:41:37.146Z,49.55
2023-04-21T19:44:24.416Z,49.38
2023-04-21T19:47:11.269Z,49.35
2023-04-21T19:49:58.222Z,50.18
2023-04-21T19:52:45.125Z,50.39
2023-04-21T19:55:32.378Z,50.44
2023-04-21T19:58:32.042Z,49.83
2023-04-21T20:01:26.268Z,50.69
2023-04-21T20:04:13.371Z,50.35
2023-04-21T20:07:00.430Z,50.93
2023-04-21T20:09:47.265Z,50.21
2023-04-21T20:12:34.267Z,50.57
2023-04-21T20:15:21.377Z,51.14
2023-04-21T20:18:08.476Z,51.77
2023-04-21T20:20:55.634Z,51.27
2023-04-21T20:23:42.692Z,51.77
2023-04-21T20:26:29.794Z,52.01
2023-04-21T20:29:16.698Z,52.05
2023-04-21T20:32:03.863Z,51.32
2023-04-21T20:34:50.717Z,51.62
2023-04-21T20:37:37.789Z,52.09
2023-04-21T20:40:24.897Z,51.51
2023-04-21T20:43:11.905Z,51.97
2023-04-21T20:45:59.549Z,50.99
2023-04-21T20:48:46.488Z,50.97
2023-04-21T20:51:33.351Z,51.00
2023-04-21T20:54:20.552Z,50.51
2023-04-21T20:57:08.451Z,50.28
2023-04-21T20:59:55.490Z,49.83
2023-04-21T21:02:42.394Z,49.65
2023-04-21T21:05:29.661Z,48.85
2023-04-21T21:08:16.686Z,48.23
2023-04-21T21:11:03.607Z,48.17
2023-04-21T21:13:50.491Z,47.70
2023-04-21T21:16:37.821Z,46.97
2023-04-21T21:19:24.942Z,46.42
2023-04-21T21:22:11.883Z,46.03
2023-04-21T21:24:58.706Z,46.17
2023-04-21T21:27:45.660Z,46.36
2023-04-21T21:30:32.758Z,46.52
2023-04-21T21:33:19.797Z,45.89
2023-04-21T21:36:06.761Z,45.76
2023-04-21T21:38:53.960Z,45.77
2023-04-21T21:41:40.950Z,45.71
2023-04-21T21:44:28.542Z,46.27
2023-04-21T21:47:15.393Z,45.60
2023-04-21T21:50:02.498Z,46.02
2023-04-21T21:52:49.361Z,45.55
2023-04-21T21:55:36.434Z,46.18
2023-04-21T21:58:23.711Z,45.33
2023-04-21T22:01:10.860Z,45.66
2023-04-21T22:03:57.924Z,45.33
2023-04-21T22:06:45.042Z,45.30
2023-04-21T22:09:31.822Z,45.60
2023-04-21T22:12:19.827Z,46.03
2023-04-21T22:15:06.672Z,45.66
2023-04-21T22:17:54.209Z,45.52
2023-04-21T22:20:41.289Z,45.90
2023-04-21T22:23:28.557Z,45.42
2023-04-21T22:26:15.356Z,45.63
2023-04-21T22:29:02.252Z,45.91
2023-04-21T22:31:50.161Z,45.74
2023-04-21T22:34:37.082Z,45.34
2023-04-21T22:37:23.947Z,45.39
2023-04-21T22:40:10.935Z,45.88
2023-04-21T22:42:58.041Z,46.28
2023-04-21T22:45:45.120Z,45.37
2023-04-21T22:48:32.292Z,46.19
2023-04-21T22:51:19.786Z,45.55
2023-04-21T22:54:06.850Z,45.67
2023-04-21T22:56:54.327Z,46.14
2023-04-21T22:59:41.298Z,46.53
2023-04-21T23:02:28.233Z,46.50
2023-04-21T23:05:15.214Z,46.42
2023-04-21T23:08:02.121Z,46.43
2023-04-21T23:10:50.064Z,46.52
2023-04-21T23:13:36.945Z,46.37
2023-04-21T23:16:23.900Z,46.67
2023-04-21T23:19:10.978Z,46.75
2023-04-21T23:21:58.896Z,46.31
2023-04-21T23:24:45.776Z,46.70
2023-04-21T23:27:32.691Z,46.46
2023-04-21T23:30:19.611Z,46.71
2023-04-21T23:33:06.687Z,46.87
2023-04-21T23:35:53.780Z,46.83
2023-04-21T23:38:40.873Z,46.97
2023-04-21T23:41:27.907Z,47.11
2023-04-21T23:44:15.023Z,47.14
2023-04-21T23:47:02.179Z,47.52
2023-04-21T23:49:49.443Z,47.33
2023-04-21T23:52:36.329Z,47.30
2023-04-21T23:55:23.611Z,47.05
2023-04-21T23:58:10.479Z,47.67
